Time,TemperatureF,DewpointF,PressureIn,WindDirection,WindDirectionDegrees,WindSpeedMPH,WindSpeedGustMPH,Humidity,HourlyPrecipIn,Conditions,Clouds,dailyrainin,SolarRadiationWatts/m^2,SoftwareType,DateUTC
2013-09-08 00:11:00,77.0,67.0,-100.00,NNE,29,1.0,3.0,71,0.00,,,0.00,20.000000,,2013-09-08 00:11:00,
2013-09-08 00:22:00,77.0,67.0,-100.00,NNE,29,1.0,3.0,71,0.00,,,0.00,20.000000,,2013-09-08 00:22:00,
2013-09-08 00:32:00,77.0,67.0,-100.00,NNE,29,1.0,3.0,71,0.00,,,0.00,20.000000,,2013-09-08 00:32:00,
2013-09-08 00:42:00,77.0,67.0,-100.00,NNE,29,1.0,3.0,71,0.00,,,0.00,20.000000,,2013-09-08 00:42:00,
2013-09-08 01:11:00,74.0,67.0,-100.00,SSE,156,1.0,2.0,80,0.00,,,0.00,2.000000,,2013-09-08 01:11:00,
2013-09-08 01:22:00,74.0,67.0,-100.00,SSE,156,1.0,2.0,80,0.00,,,0.00,2.000000,,2013-09-08 01:22:00,
2013-09-08 01:32:00,74.0,67.0,-100.00,SSE,156,1.0,2.0,80,0.00,,,0.00,2.000000,,2013-09-08 01:32:00,
2013-09-08 01:42:00,74.0,67.0,-100.00,SSE,156,1.0,2.0,80,0.00,,,0.00,2.000000,,2013-09-08 01:42:00,
2013-09-08 02:12:00,72.0,67.0,-100.00,South,172,2.0,2.0,83,0.00,,,0.00,0.000000,,2013-09-08 02:12:00,
2013-09-08 02:23:00,72.0,67.0,-100.00,South,172,2.0,2.0,83,0.00,,,0.00,0.000000,,2013-09-08 02:23:00,
2013-09-08 02:32:00,72.0,67.0,-100.00,South,172,2.0,2.0,83,0.00,,,0.00,0.000000,,2013-09-08 02:32:00,
2013-09-08 02:43:00,72.0,67.0,-100.00,South,172,2.0,2.0,83,0.00,,,0.00,0.000000,,2013-09-08 02:43:00,
2013-09-08 03:12:00,72.0,67.0,-100.00,NNW,345,0.0,2.0,85,0.00,,,0.00,0.000000,,2013-09-08 03:12:00,
2013-09-08 03:23:00,72.0,67.0,-100.00,NNW,345,0.0,2.0,85,0.00,,,0.00,0.000000,,2013-09-08 03:23:00,
2013-09-08 03:34:00,72.0,67.0,-100.00,NNW,345,0.0,2.0,85,0.00,,,0.00,0.000000,,2013-09-08 03:34:00,
2013-09-08 03:44:00,72.0,67.0,-100.00,NNW,345,0.0,2.0,85,0.00,,,0.00,0.000000,,2013-09-08 03:44:00,
2013-09-08 05:13:00,72.0,68.0,-100.00,NNW,343,1.0,2.0,87,-99.99,,,0.00,0.000000,,2013-09-08 05:13:00,
2013-09-08 05:23:00,72.0,68.0,-100.00,NNW,343,1.0,2.0,87,-99.99,,,0.00,0.000000,,2013-09-08 05:23:00,
2013-09-08 05:34:00,72.0,68.0,-100.00,NNW,343,1.0,2.0,87,-99.99,,,0.00,0.000000,,2013-09-08 05:34:00,
2013-09-08 05:43:00,72.0,68.0,-100.00,NNW,343,1.0,2.0,87,-99.99,,,0.00,0.000000,,2013-09-08 05:43:00,
2013-09-08 06:13:00,71.0,67.0,-100.00,NNE,27,1.0,3.0,87,0.01,,,0.01,0.000000,,2013-09-08 06:13:00,
2013-09-08 06:22:00,71.0,67.0,-100.00,NNE,27,1.0,3.0,87,0.01,,,0.01,0.000000,,2013-09-08 06:22:00,
2013-09-08 06:33:00,71.0,67.0,-100.00,NNE,27,1.0,3.0,87,0.01,,,0.01,0.000000,,2013-09-08 06:33:00,
2013-09-08 06:42:00,71.0,67.0,-100.00,NNE,27,1.0,3.0,87,0.01,,,0.01,0.000000,,2013-09-08 06:42:00,
2013-09-08 07:12:00,70.0,69.0,-100.00,SE,144,0.0,2.0,96,0.00,,,-99.99,0.000000,,2013-09-08 07:12:00,
2013-09-08 07:23:00,70.0,69.0,-100.00,SE,144,0.0,2.0,96,0.00,,,-99.99,0.000000,,2013-09-08 07:23:00,
2013-09-08 07:32:00,70.0,69.0,-100.00,SE,144,0.0,2.0,96,0.00,,,-99.99,0.000000,,2013-09-08 07:32:00,
2013-09-08 07:42:00,70.0,69.0,-100.00,SE,144,0.0,2.0,96,0.00,,,-99.99,0.000000,,2013-09-08 07:42:00,
2013-09-08 08:12:00,70.0,69.0,-100.00,SSE,160,0.0,2.0,96,0.00,,,-99.99,0.000000,,2013-09-08 08:12:00,
2013-09-08 08:22:00,70.0,69.0,-100.00,SSE,160,0.0,2.0,96,0.00,,,-99.99,0.000000,,2013-09-08 08:22:00,
2013-09-08 08:32:00,70.0,69.0,-100.00,SSE,160,0.0,2.0,96,0.00,,,-99.99,0.000000,,2013-09-08 08:32:00,
2013-09-08 08:42:00,70.0,69.0,-100.00,SSE,160,0.0,2.0,96,0.00,,,-99.99,0.000000,,2013-09-08 08:42:00,
2013-09-08 09:11:00,69.0,68.0,-100.00,SE,129,0.0,2.0,97,0.00,,,0.01,0.000000,,2013-09-08 09:11:00,
2013-09-08 09:22:00,69.0,68.0,-100.00,SE,129,0.0,2.0,97,0.00,,,0.01,0.000000,,2013-09-08 09:22:00,
2013-09-08 09:33:00,69.0,68.0,-100.00,SE,129,0.0,2.0,97,0.00,,,0.01,0.000000,,2013-09-08 09:33:00,
2013-09-08 09:43:00,69.0,68.0,-100.00,SE,129,0.0,2.0,97,0.00,,,0.01,0.000000,,2013-09-08 09:43:00,
2013-09-08 10:12:00,68.0,67.0,-100.00,SSW,203,1.0,2.0,97,0.00,,,-99.99,0.000000,,2013-09-08 10:12:00,
2013-09-08 10:23:00,68.0,67.0,-100.00,SSW,203,1.0,2.0,97,0.00,,,-99.99,0.000000,,2013-09-08 10:23:00,
2013-09-08 10:33:00,68.0,67.0,-100.00,SSW,203,1.0,2.0,97,0.00,,,-99.99,0.000000,,2013-09-08 10:33:00,
2013-09-08 10:42:00,68.0,67.0,-100.00,SSW,203,1.0,2.0,97,0.00,,,-99.99,0.000000,,2013-09-08 10:42:00,
2013-09-08 11:12:00,68.0,67.0,-100.00,SW,224,0.0,2.0,98,0.00,,,0.01,0.000000,,2013-09-08 11:12:00,
2013-09-08 11:21:00,68.0,67.0,-100.00,SW,224,0.0,2.0,98,0.00,,,0.01,0.000000,,2013-09-08 11:21:00,
2013-09-08 11:33:00,68.0,67.0,-100.00,SW,224,0.0,2.0,98,0.00,,,0.01,0.000000,,2013-09-08 11:33:00,
2013-09-08 11:42:00,68.0,67.0,-100.00,SW,224,0.0,2.0,98,0.00,,,0.01,0.000000,,2013-09-08 11:42:00,
2013-09-08 12:12:00,68.0,67.0,-100.00,ESE,121,0.0,0.0,98,0.00,,,0.01,2.000000,,2013-09-08 12:12:00,
2013-09-08 12:22:00,68.0,67.0,-100.00,ESE,121,0.0,0.0,98,0.00,,,0.01,2.000000,,2013-09-08 12:22:00,
2013-09-08 12:32:00,68.0,67.0,-100.00,ESE,121,0.0,0.0,98,0.00,,,0.01,2.000000,,2013-09-08 12:32:00,
2013-09-08 12:42:00,68.0,67.0,-100.00,ESE,121,0.0,0.0,98,0.00,,,0.01,2.000000,,2013-09-08 12:42:00,
2013-09-08 13:12:00,69.0,68.0,-100.00,SSE,162,1.0,2.0,97,0.00,,,0.01,30.000000,,2013-09-08 13:12:00,
2013-09-08 13:22:00,69.0,68.0,-100.00,SSE,162,1.0,2.0,97,0.00,,,0.01,30.000000,,2013-09-08 13:22:00,
2013-09-08 13:32:00,69.0,68.0,-100.00,SSE,162,1.0,2.0,97,0.00,,,0.01,30.000000,,2013-09-08 13:32:00,
2013-09-08 13:42:00,69.0,68.0,-100.00,SSE,162,1.0,2.0,97,0.00,,,0.01,30.000000,,2013-09-08 13:42:00,
2013-09-08 14:11:00,73.0,71.0,-100.00,South,191,1.0,2.0,95,0.00,,,-99.99,71.000000,,2013-09-08 14:11:00,
2013-09-08 14:22:00,73.0,71.0,-100.00,South,191,1.0,2.0,95,0.00,,,-99.99,71.000000,,2013-09-08 14:22:00,
2013-09-08 14:31:00,73.0,71.0,-100.00,South,191,1.0,2.0,95,0.00,,,-99.99,71.000000,,2013-09-08 14:31:00,
2013-09-08 14:42:00,73.0,71.0,-100.00,South,191,1.0,2.0,95,0.00,,,-99.99,71.000000,,2013-09-08 14:42:00,
2013-09-08 15:12:00,77.0,70.0,-100.00,WSW,256,2.0,4.0,79,0.00,,,-99.99,167.000000,,2013-09-08 15:12:00,
2013-09-08 15:23:00,77.0,70.0,-100.00,WSW,256,2.0,4.0,79,0.00,,,-99.99,167.000000,,2013-09-08 15:23:00,
2013-09-08 15:34:00,77.0,70.0,-100.00,WSW,256,2.0,4.0,79,0.00,,,-99.99,167.000000,,2013-09-08 15:34:00,
2013-09-08 15:45:00,77.0,70.0,-100.00,WSW,256,2.0,4.0,79,0.00,,,-99.99,167.000000,,2013-09-08 15:45:00,
2013-09-08 16:14:00,79.0,70.0,-100.00,SSW,209,2.0,5.0,74,0.00,,,0.01,204.000000,,2013-09-08 16:14:00,
2013-09-08 16:23:00,79.0,70.0,-100.00,SSW,209,2.0,5.0,74,0.00,,,0.01,204.000000,,2013-09-08 16:23:00,
2013-09-08 16:34:00,79.0,70.0,-100.00,SSW,209,2.0,5.0,74,0.00,,,0.01,204.000000,,2013-09-08 16:34:00,
2013-09-08 16:44:00,79.0,70.0,-100.00,SSW,209,2.0,5.0,74,0.00,,,0.01,204.000000,,2013-09-08 16:44:00,
2013-09-08 17:12:00,78.0,68.0,-100.00,SW,214,1.0,4.0,72,0.00,,,0.01,139.000000,,2013-09-08 17:12:00,
2013-09-08 17:23:00,78.0,68.0,-100.00,SW,214,1.0,4.0,72,0.00,,,0.01,139.000000,,2013-09-08 17:23:00,
2013-09-08 17:34:00,78.0,68.0,-100.00,SW,214,1.0,4.0,72,0.00,,,0.01,139.000000,,2013-09-08 17:34:00,
2013-09-08 17:43:00,78.0,68.0,-100.00,SW,214,1.0,4.0,72,0.00,,,0.01,139.000000,,2013-09-08 17:43:00,
2013-09-08 18:13:00,80.0,71.0,-100.00,ESE,103,1.0,3.0,73,0.00,,,0.01,194.000000,,2013-09-08 18:13:00,
2013-09-08 18:22:00,80.0,71.0,-100.00,ESE,103,1.0,3.0,73,0.00,,,0.01,194.000000,,2013-09-08 18:22:00,
2013-09-08 18:32:00,80.0,71.0,-100.00,ESE,103,1.0,3.0,73,0.00,,,0.01,194.000000,,2013-09-08 18:32:00,
2013-09-08 18:42:00,80.0,71.0,-100.00,ESE,103,1.0,3.0,73,0.00,,,0.01,194.000000,,2013-09-08 18:42:00,
2013-09-08 19:12:00,80.0,71.0,-100.00,SSE,147,2.0,3.0,75,0.00,,,-99.99,216.000000,,2013-09-08 19:12:00,
2013-09-08 19:22:00,80.0,71.0,-100.00,SSE,147,2.0,3.0,75,0.00,,,-99.99,216.000000,,2013-09-08 19:22:00,
2013-09-08 19:32:00,80.0,71.0,-100.00,SSE,147,2.0,3.0,75,0.00,,,-99.99,216.000000,,2013-09-08 19:32:00,
2013-09-08 19:42:00,80.0,71.0,-100.00,SSE,147,2.0,3.0,75,0.00,,,-99.99,216.000000,,2013-09-08 19:42:00,
2013-09-08 20:11:00,81.0,70.0,-100.00,WNW,282,1.0,3.0,70,0.00,,,0.01,221.000000,,2013-09-08 20:11:00,
2013-09-08 20:22:00,81.0,70.0,-100.00,WNW,282,1.0,3.0,70,0.00,,,0.01,221.000000,,2013-09-08 20:22:00,
2013-09-08 20:32:00,81.0,70.0,-100.00,WNW,282,1.0,3.0,70,0.00,,,0.01,221.000000,,2013-09-08 20:32:00,
2013-09-08 20:42:00,81.0,70.0,-100.00,WNW,282,1.0,3.0,70,0.00,,,0.01,221.000000,,2013-09-08 20:42:00,
2013-09-08 21:12:00,79.0,70.0,-100.00,SE,133,0.0,2.0,75,0.00,,,0.01,113.000000,,2013-09-08 21:12:00,
2013-09-08 21:22:00,79.0,70.0,-100.00,SE,133,0.0,2.0,75,0.00,,,0.01,113.000000,,2013-09-08 21:22:00,
2013-09-08 21:34:00,79.0,70.0,-100.00,SE,133,0.0,2.0,75,0.00,,,0.01,113.000000,,2013-09-08 21:34:00,
2013-09-08 21:43:00,79.0,70.0,-100.00,SE,133,0.0,2.0,75,0.00,,,0.01,113.000000,,2013-09-08 21:43:00,
2013-09-08 22:13:00,78.0,73.0,-100.00,SW,214,1.0,2.0,86,0.00,,,0.01,55.000000,,2013-09-08 22:13:00,
2013-09-08 22:24:00,78.0,73.0,-100.00,SW,214,1.0,2.0,86,0.00,,,0.01,55.000000,,2013-09-08 22:24:00,
2013-09-08 22:33:00,78.0,73.0,-100.00,SW,214,1.0,2.0,86,0.00,,,0.01,55.000000,,2013-09-08 22:33:00,
2013-09-08 22:43:00,78.0,73.0,-100.00,SW,214,1.0,2.0,86,0.00,,,0.01,55.000000,,2013-09-08 22:43:00,
2013-09-08 23:12:00,78.0,73.0,-100.00,South,175,1.0,2.0,85,0.00,,,0.01,60.000000,,2013-09-08 23:12:00,
2013-09-08 23:22:00,78.0,73.0,-100.00,South,175,1.0,2.0,85,0.00,,,0.01,60.000000,,2013-09-08 23:22:00,
2013-09-08 23:34:00,78.0,73.0,-100.00,South,175,1.0,2.0,85,0.00,,,0.01,60.000000,,2013-09-08 23:34:00,
2013-09-08 23:42:00,78.0,73.0,-100.00,South,175,1.0,2.0,85,0.00,,,0.01,60.000000,,2013-09-08 23:42:00,